sensor_id;sensor_type;location;lat;lon;timestamp;pressure;altitude;pressure_sealevel;temperature;humidity
13954;BME280;7049;49.444;8.522;2023-03-26T00:03:13;77772.03;;;-3.47;91.97
13954;BME280;7049;49.444;8.522;2023-03-26T00:08:16;77774.13;;;-3.47;91.08
13954;BME280;7049;49.444;8.522;2023-03-26T00:13:17;77767.84;;;-3.47;90.90
13954;BME280;7049;49.444;8.522;2023-03-26T00:18:20;77772.03;;;-3.47;91.17
13954;BME280;7049;49.444;8.522;2023-03-26T00:23:24;77778.31;;;-3.47;91.15
13954;BME280;7049;49.444;8.522;2023-03-26T00:28:26;77786.69;;;-3.47;91.41
13954;BME280;7049;49.444;8.522;2023-03-26T00:33:30;77788.78;;;-3.47;90.20
13954;BME280;7049;49.444;8.522;2023-03-26T00:38:32;77795.06;;;-3.47;89.80
13954;BME280;7049;49.444;8.522;2023-03-26T00:43:38;77801.34;;;-3.47;89.95
13954;BME280;7049;49.444;8.522;2023-03-26T00:48:40;77801.34;;;-3.47;89.83
13954;BME280;7049;49.444;8.522;2023-03-26T00:53:44;77788.78;;;-3.47;89.23
13954;BME280;7049;49.444;8.522;2023-03-26T00:58:46;77788.78;;;-3.47;89.65
13954;BME280;7049;49.444;8.522;2023-03-26T01:03:50;77784.59;;;-3.47;89.77
13954;BME280;7049;49.444;8.522;2023-03-26T01:09:02;77782.50;;;-3.47;89.94
13954;BME280;7049;49.444;8.522;2023-03-26T01:14:09;77778.31;;;-3.47;89.35
13954;BME280;7049;49.444;8.522;2023-03-26T01:19:16;77767.84;;;-3.47;89.62
13954;BME280;7049;49.444;8.522;2023-03-26T01:24:22;77769.94;;;-3.47;89.91
13954;BME280;7049;49.444;8.522;2023-03-26T01:29:29;77772.03;;;-3.47;89.76
13954;BME280;7049;49.444;8.522;2023-03-26T01:34:43;77763.66;;;-3.47;89.28
13954;BME280;7049;49.444;8.522;2023-03-26T01:39:54;77755.28;;;-3.47;89.64
13954;BME280;7049;49.444;8.522;2023-03-26T01:44:59;77751.13;;;-3.47;89.91
13954;BME280;7049;49.444;8.522;2023-03-26T01:50:04;77734.38;;;-3.47;89.17
13954;BME280;7049;49.444;8.522;2023-03-26T01:55:08;77728.09;;;-3.47;88.69
13954;BME280;7049;49.444;8.522;2023-03-26T02:00:18;77715.53;;;-3.47;89.22
13954;BME280;7049;49.444;8.522;2023-03-26T02:05:23;77713.44;;;-3.47;88.55
13954;BME280;7049;49.444;8.522;2023-03-26T02:10:29;77709.25;;;-3.47;88.55
13954;BME280;7049;49.444;8.522;2023-03-26T02:15:31;77705.09;;;-3.47;88.63
13954;BME280;7049;49.444;8.522;2023-03-26T02:20:34;77694.63;;;-3.47;88.70
13954;BME280;7049;49.444;8.522;2023-03-26T02:25:36;77690.44;;;-3.47;89.12
13954;BME280;7049;49.444;8.522;2023-03-26T02:30:39;77677.88;;;-3.47;88.46
13954;BME280;7049;49.444;8.522;2023-03-26T02:35:41;77667.41;;;-3.47;88.26
13954;BME280;7049;49.444;8.522;2023-03-26T02:40:46;77656.94;;;-3.47;87.59
13954;BME280;7049;49.444;8.522;2023-03-26T02:45:47;77652.78;;;-3.47;87.80
13954;BME280;7049;49.444;8.522;2023-03-26T02:50:50;77654.88;;;-3.47;88.31
13954;BME280;7049;49.444;8.522;2023-03-26T02:55:54;77644.41;;;-3.47;88.30
13954;BME280;7049;49.444;8.522;2023-03-26T03:00:56;77648.59;;;-3.47;88.74
13954;BME280;7049;49.444;8.522;2023-03-26T03:05:58;77633.94;;;-3.47;89.23
13954;BME280;7049;49.444;8.522;2023-03-26T03:11:03;77633.94;;;-3.47;88.56
13954;BME280;7049;49.444;8.522;2023-03-26T03:16:07;77623.47;;;-3.47;88.53
13954;BME280;7049;49.444;8.522;2023-03-26T03:21:09;77625.56;;;-3.47;88.53
13954;BME280;7049;49.444;8.522;2023-03-26T03:26:14;77613.00;;;-3.47;88.02
13954;BME280;7049;49.444;8.522;2023-03-26T03:31:16;77610.91;;;-3.47;87.45
13954;BME280;7049;49.444;8.522;2023-03-26T03:36:20;77606.75;;;-3.47;87.83
13954;BME280;7049;49.444;8.522;2023-03-26T03:41:23;77606.75;;;-3.47;88.56
13954;BME280;7049;49.444;8.522;2023-03-26T03:46:25;77600.47;;;-3.47;89.28
13954;BME280;7049;49.444;8.522;2023-03-26T03:51:26;77600.47;;;-3.47;89.73
13954;BME280;7049;49.444;8.522;2023-03-26T03:56:29;77592.09;;;-3.47;89.61
13954;BME280;7049;49.444;8.522;2023-03-26T04:01:30;77596.28;;;-3.47;90.00
13954;BME280;7049;49.444;8.522;2023-03-26T04:06:32;77581.63;;;-3.47;89.89
13954;BME280;7049;49.444;8.522;2023-03-26T04:11:35;77579.53;;;-3.47;90.00
13954;BME280;7049;49.444;8.522;2023-03-26T04:16:37;77573.25;;;-3.47;90.23
13954;BME280;7049;49.444;8.522;2023-03-26T04:21:39;77571.16;;;-3.47;90.40
13954;BME280;7049;49.444;8.522;2023-03-26T04:26:45;77564.91;;;-3.47;90.57
13954;BME280;7049;49.444;8.522;2023-03-26T04:31:49;77552.34;;;-3.47;91.01
13954;BME280;7049;49.444;8.522;2023-03-26T04:36:58;77554.44;;;-3.47;91.43
13954;BME280;7049;49.444;8.522;2023-03-26T04:42:02;77552.34;;;-3.47;91.60
13954;BME280;7049;49.444;8.522;2023-03-26T04:47:03;77546.06;;;-3.47;91.63
13954;BME280;7049;49.444;8.522;2023-03-26T04:52:05;77546.06;;;-3.47;91.92
13954;BME280;7049;49.444;8.522;2023-03-26T04:57:13;77546.06;;;-3.47;92.33
13954;BME280;7049;49.444;8.522;2023-03-26T05:02:15;77546.06;;;-3.47;92.57
13954;BME280;7049;49.444;8.522;2023-03-26T05:07:19;77543.97;;;-3.47;92.82
13954;BME280;7049;49.444;8.522;2023-03-26T05:12:22;77537.69;;;-3.47;93.10
13954;BME280;7049;49.444;8.522;2023-03-26T05:17:24;77520.94;;;-3.47;92.97
13954;BME280;7049;49.444;8.522;2023-03-26T05:22:29;77514.69;;;-3.47;93.11
13954;BME280;7049;49.444;8.522;2023-03-26T05:27:33;77508.41;;;-3.47;93.44
13954;BME280;7049;49.444;8.522;2023-03-26T05:32:34;77504.22;;;-3.47;93.39
13954;BME280;7049;49.444;8.522;2023-03-26T05:37:37;77493.75;;;-3.47;93.38
13954;BME280;7049;49.444;8.522;2023-03-26T05:42:40;77483.28;;;-3.47;92.98
13954;BME280;7049;49.444;8.522;2023-03-26T05:47:42;77472.84;;;-3.47;93.52
13954;BME280;7049;49.444;8.522;2023-03-26T05:52:43;77468.66;;;-3.47;93.65
13954;BME280;7049;49.444;8.522;2023-03-26T05:57:46;77456.09;;;-3.47;93.98
13954;BME280;7049;49.444;8.522;2023-03-26T06:02:48;77451.91;;;-3.47;94.82
13954;BME280;7049;49.444;8.522;2023-03-26T06:07:49;77447.72;;;-3.47;95.07
13954;BME280;7049;49.444;8.522;2023-03-26T06:12:52;77445.63;;;-3.47;95.70
13954;BME280;7049;49.444;8.522;2023-03-26T06:17:53;77435.16;;;-3.47;95.39
13954;BME280;7049;49.444;8.522;2023-03-26T06:22:55;77424.72;;;-3.47;95.93
13954;BME280;7049;49.444;8.522;2023-03-26T06:27:57;77414.25;;;-3.47;96.59
13954;BME280;7049;49.444;8.522;2023-03-26T06:32:59;77399.59;;;-3.47;96.88
13954;BME280;7049;49.444;8.522;2023-03-26T06:38:01;77393.31;;;-3.47;96.72
13954;BME280;7049;49.444;8.522;2023-03-26T06:43:04;77374.50;;;-3.47;96.72
13954;BME280;7049;49.444;8.522;2023-03-26T06:48:06;77372.41;;;-3.47;96.75
13954;BME280;7049;49.444;8.522;2023-03-26T06:53:07;77368.22;;;-3.47;96.27
13954;BME280;7049;49.444;8.522;2023-03-26T06:58:14;77364.03;;;-3.47;96.45
13954;BME280;7049;49.444;8.522;2023-03-26T07:03:16;77364.03;;;-3.47;96.45
13954;BME280;7049;49.444;8.522;2023-03-26T07:08:18;77357.75;;;-3.47;96.21
13954;BME280;7049;49.444;8.522;2023-03-26T07:13:21;77349.38;;;-3.47;96.81
13954;BME280;7049;49.444;8.522;2023-03-26T07:18:22;77336.84;;;-3.47;96.69
13954;BME280;7049;49.444;8.522;2023-03-26T07:23:24;77332.66;;;-3.47;96.70
13954;BME280;7049;49.444;8.522;2023-03-26T07:28:33;77332.66;;;-3.47;97.00
13954;BME280;7049;49.444;8.522;2023-03-26T07:33:42;77324.28;;;-3.47;96.59
13954;BME280;7049;49.444;8.522;2023-03-26T07:38:58;77324.28;;;-3.47;96.96
13954;BME280;7049;49.444;8.522;2023-03-26T07:44:15;77332.66;;;-3.47;97.50
13954;BME280;7049;49.444;8.522;2023-03-26T07:49:22;77320.09;;;-3.47;97.56
13954;BME280;7049;49.444;8.522;2023-03-26T07:54:24;77328.47;;;-3.47;98.40
13954;BME280;7049;49.444;8.522;2023-03-26T07:59:30;77334.75;;;-3.47;99.12
13954;BME280;7049;49.444;8.522;2023-03-26T08:04:59;77326.38;;;-3.47;99.71
13954;BME280;7049;49.444;8.522;2023-03-26T08:10:09;77338.94;;;-3.47;100.00
13954;BME280;7049;49.444;8.522;2023-03-26T08:15:20;77341.03;;;-3.47;100.00
13954;BME280;7049;49.444;8.522;2023-03-26T08:20:31;77349.38;;;-3.47;100.00
13954;BME280;7049;49.444;8.522;2023-03-26T08:25:48;77349.38;;;-3.47;100.00
13954;BME280;7049;49.444;8.522;2023-03-26T08:30:55;77353.56;;;-3.47;100.00
13954;BME280;7049;49.444;8.522;2023-03-26T08:35:56;77345.22;;;-3.47;100.00
13954;BME280;7049;49.444;8.522;2023-03-26T08:46:55;77307.53;;;-3.47;100.00
13954;BME280;7049;49.444;8.522;2023-03-26T08:52:27;77307.53;;;-3.47;100.00
13954;BME280;7049;49.444;8.522;2023-03-26T08:57:48;77297.09;;;-3.47;100.00
13954;BME280;7049;49.444;8.522;2023-03-26T09:03:29;77295.00;;;-3.47;100.00
13954;BME280;7049;49.444;8.522;2023-03-26T09:14:38;77246.88;;;-3.47;100.00
13954;BME280;7049;49.444;8.522;2023-03-26T09:20:02;77202.94;;;-3.47;100.00
13954;BME280;7049;49.444;8.522;2023-03-26T09:25:28;77165.28;;;-3.47;100.00
13954;BME280;7049;49.444;8.522;2023-03-26T09:31:04;77123.44;;;-3.47;100.00
13954;BME280;7049;49.444;8.522;2023-03-26T09:36:30;77123.44;;;-3.47;97.57
13954;BME280;7049;49.444;8.522;2023-03-26T09:41:40;77112.97;;;-3.47;97.89
13954;BME280;7049;49.444;8.522;2023-03-26T09:46:55;77104.63;;;-3.47;97.08
13954;BME280;7049;49.444;8.522;2023-03-26T09:52:23;77104.63;;;-3.47;95.58
13954;BME280;7049;49.444;8.522;2023-03-26T09:57:54;77075.31;;;-3.47;95.62
13954;BME280;7049;49.444;8.522;2023-03-26T10:03:17;76979.09;;;-3.47;97.70
13954;BME280;7049;49.444;8.522;2023-03-26T10:08:32;76903.78;;;-3.47;94.39
13954;BME280;7049;49.444;8.522;2023-03-26T10:13:46;76830.56;;;-3.47;92.20
13954;BME280;7049;49.444;8.522;2023-03-26T10:19:03;76797.09;;;-3.47;89.15
13954;BME280;7049;49.444;8.522;2023-03-26T10:24:31;76765.72;;;-3.47;88.82
13954;BME280;7049;49.444;8.522;2023-03-26T10:30:06;76734.34;;;-3.47;84.91
13954;BME280;7049;49.444;8.522;2023-03-26T10:35:22;76751.06;;;-3.47;85.02
13954;BME280;7049;49.444;8.522;2023-03-26T10:40:30;76767.81;;;-3.47;86.46
13954;BME280;7049;49.444;8.522;2023-03-26T10:45:43;76801.28;;;-3.47;85.04
13954;BME280;7049;49.444;8.522;2023-03-26T10:51:16;76828.47;;;-3.47;86.71
13954;BME280;7049;49.444;8.522;2023-03-26T10:56:26;76866.13;;;-3.47;89.41
13954;BME280;7049;49.444;8.522;2023-03-26T11:01:36;76893.31;;;-3.47;91.19
13954;BME280;7049;49.444;8.522;2023-03-26T11:06:44;76895.41;;;-3.47;93.59
13954;BME280;7049;49.444;8.522;2023-03-26T11:11:56;76907.97;;;-3.47;93.34
13954;BME280;7049;49.444;8.522;2023-03-26T11:17:04;76872.41;;;-3.47;95.15
13954;BME280;7049;49.444;8.522;2023-03-26T11:22:19;76843.13;;;-3.47;93.92
13954;BME280;7049;49.444;8.522;2023-03-26T11:27:38;76826.38;;;-3.47;92.28
13954;BME280;7049;49.444;8.522;2023-03-26T11:32:44;76809.66;;;-3.47;90.50
13954;BME280;7049;49.444;8.522;2023-03-26T11:37:51;76795.00;;;-3.47;85.96
13954;BME280;7049;49.444;8.522;2023-03-26T11:42:59;76761.53;;;-3.47;89.11
13954;BME280;7049;49.444;8.522;2023-03-26T11:48:06;76755.25;;;-3.47;81.60
13954;BME280;7049;49.444;8.522;2023-03-26T11:53:11;76751.06;;;-3.47;78.94
13954;BME280;7049;49.444;8.522;2023-03-26T11:58:24;76767.81;;;-3.47;71.29
13954;BME280;7049;49.444;8.522;2023-03-26T12:03:28;76774.09;;;-3.47;67.27
13954;BME280;7049;49.444;8.522;2023-03-26T12:08:33;76774.09;;;-3.47;66.61
13954;BME280;7049;49.444;8.522;2023-03-26T12:13:42;76784.53;;;-3.47;65.67
13954;BME280;7049;49.444;8.522;2023-03-26T12:18:45;76769.91;;;-3.47;63.58
13954;BME280;7049;49.444;8.522;2023-03-26T12:23:59;76744.81;;;-3.47;64.39
13954;BME280;7049;49.444;8.522;2023-03-26T12:29:11;76713.44;;;-3.47;60.93
13954;BME280;7049;49.444;8.522;2023-03-26T12:34:15;76671.59;;;-3.47;60.97
13954;BME280;7049;49.444;8.522;2023-03-26T12:39:34;76656.94;;;-3.47;58.19
13954;BME280;7049;49.444;8.522;2023-03-26T12:44:43;76621.38;;;-3.47;56.88
13954;BME280;7049;49.444;8.522;2023-03-26T12:49:45;76587.91;;;-3.47;52.08
13954;BME280;7049;49.444;8.522;2023-03-26T12:54:53;76567.00;;;-3.47;51.58
13954;BME280;7049;49.444;8.522;2023-03-26T13:00:15;76579.56;;;-3.47;51.13
13954;BME280;7049;49.444;8.522;2023-03-26T13:05:32;76550.28;;;-3.47;50.87
13954;BME280;7049;49.444;8.522;2023-03-26T13:10:51;76523.06;;;-3.47;46.40
13954;BME280;7049;49.444;8.522;2023-03-26T13:16:04;76485.44;;;-3.47;44.32
13954;BME280;7049;49.444;8.522;2023-03-26T13:21:11;76474.97;;;-3.47;43.72
13954;BME280;7049;49.444;8.522;2023-03-26T13:26:31;76491.69;;;-3.47;41.00
13954;BME280;7049;49.444;8.522;2023-03-26T13:31:44;76495.88;;;-3.47;42.53
13954;BME280;7049;49.444;8.522;2023-03-26T13:36:55;76485.44;;;-3.47;42.74
13954;BME280;7049;49.444;8.522;2023-03-26T13:42:18;76500.06;;;-3.47;44.21
13954;BME280;7049;49.444;8.522;2023-03-26T13:47:27;76491.69;;;-3.47;42.41
13954;BME280;7049;49.444;8.522;2023-03-26T13:52:34;76508.44;;;-3.47;41.00
13954;BME280;7049;49.444;8.522;2023-03-26T13:57:41;76529.34;;;-3.47;41.88
13954;BME280;7049;49.444;8.522;2023-03-26T14:02:52;76533.53;;;-3.47;42.59
13954;BME280;7049;49.444;8.522;2023-03-26T14:07:59;76556.53;;;-3.47;42.64
13954;BME280;7049;49.444;8.522;2023-03-26T14:13:06;76571.19;;;-3.47;43.17
13954;BME280;7049;49.444;8.522;2023-03-26T14:18:21;76569.09;;;-3.47;42.46
13954;BME280;7049;49.444;8.522;2023-03-26T14:23:36;76585.81;;;-3.47;42.56
13954;BME280;7049;49.444;8.522;2023-03-26T14:29:13;76583.72;;;-3.47;42.89
13954;BME280;7049;49.444;8.522;2023-03-26T14:34:29;76596.28;;;-3.47;44.13
13954;BME280;7049;49.444;8.522;2023-03-26T14:39:47;76617.19;;;-3.47;44.04
13954;BME280;7049;49.444;8.522;2023-03-26T14:50:52;76709.25;;;-3.47;47.88
13954;BME280;7049;49.444;8.522;2023-03-26T14:56:24;76732.25;;;-3.47;50.95
13954;BME280;7049;49.444;8.522;2023-03-26T15:01:58;76776.19;;;-3.47;54.27
13954;BME280;7049;49.444;8.522;2023-03-26T15:07:31;76807.56;;;-3.47;56.28
13954;BME280;7049;49.444;8.522;2023-03-26T15:12:42;76838.94;;;-3.47;58.07
13954;BME280;7049;49.444;8.522;2023-03-26T15:18:01;76847.31;;;-3.47;59.96
13954;BME280;7049;49.444;8.522;2023-03-26T15:23:45;76864.03;;;-3.47;61.02
13954;BME280;7049;49.444;8.522;2023-03-26T15:29:03;76872.41;;;-3.47;61.33
13954;BME280;7049;49.444;8.522;2023-03-26T15:34:24;76878.69;;;-3.47;63.20
13954;BME280;7049;49.444;8.522;2023-03-26T15:39:56;76897.50;;;-3.47;64.63
13954;BME280;7049;49.444;8.522;2023-03-26T15:45:25;76914.25;;;-3.47;67.06
13954;BME280;7049;49.444;8.522;2023-03-26T15:50:36;76937.25;;;-3.47;69.27
13954;BME280;7049;49.444;8.522;2023-03-26T15:55:43;76966.53;;;-3.47;71.79
13954;BME280;7049;49.444;8.522;2023-03-26T16:00:56;76981.19;;;-3.47;72.22
13954;BME280;7049;49.444;8.522;2023-03-26T16:06:19;76981.19;;;-3.47;75.07
13954;BME280;7049;49.444;8.522;2023-03-26T16:11:49;77000.00;;;-3.47;78.00
13954;BME280;7049;49.444;8.522;2023-03-26T16:16:55;77018.84;;;-3.47;79.65
13954;BME280;7049;49.444;8.522;2023-03-26T16:22:05;77023.03;;;-3.47;80.29
13954;BME280;7049;49.444;8.522;2023-03-26T16:27:30;77035.56;;;-3.47;80.36
13954;BME280;7049;49.444;8.522;2023-03-26T16:32:35;77056.50;;;-3.47;78.86
13954;BME280;7049;49.444;8.522;2023-03-26T16:37:42;77066.97;;;-3.47;79.34
13954;BME280;7049;49.444;8.522;2023-03-26T16:42:52;77075.31;;;-3.47;76.08
13954;BME280;7049;49.444;8.522;2023-03-26T16:48:00;77075.31;;;-3.47;76.07
13954;BME280;7049;49.444;8.522;2023-03-26T16:53:19;77064.88;;;-3.47;74.90
13954;BME280;7049;49.444;8.522;2023-03-26T16:58:30;77075.31;;;-3.47;75.31
13954;BME280;7049;49.444;8.522;2023-03-26T17:03:42;77087.88;;;-3.47;76.46
13954;BME280;7049;49.444;8.522;2023-03-26T17:08:53;77094.16;;;-3.47;76.20
13954;BME280;7049;49.444;8.522;2023-03-26T17:14:08;77106.72;;;-3.47;76.92
13954;BME280;7049;49.444;8.522;2023-03-26T17:19:24;77117.16;;;-3.47;77.07
13954;BME280;7049;49.444;8.522;2023-03-26T17:24:37;77121.34;;;-3.47;78.08
13954;BME280;7049;49.444;8.522;2023-03-26T17:29:58;77115.06;;;-3.47;78.76
13954;BME280;7049;49.444;8.522;2023-03-26T17:35:03;77127.63;;;-3.47;79.26
13954;BME280;7049;49.444;8.522;2023-03-26T17:40:43;77131.81;;;-3.47;80.87
13954;BME280;7049;49.444;8.522;2023-03-26T17:45:47;77129.72;;;-3.47;80.21
13954;BME280;7049;49.444;8.522;2023-03-26T17:50:52;77144.38;;;-3.47;80.81
13954;BME280;7049;49.444;8.522;2023-03-26T17:56:25;77152.72;;;-3.47;81.77
13954;BME280;7049;49.444;8.522;2023-03-26T18:07:45;77144.38;;;-3.47;83.36
13954;BME280;7049;49.444;8.522;2023-03-26T18:16:11;77148.53;;;-3.47;82.98
13954;BME280;7049;49.444;8.522;2023-03-26T18:19:13;77161.09;;;-3.47;84.12
13954;BME280;7049;49.444;8.522;2023-03-26T18:30:21;77182.03;;;-3.47;87.05
13954;BME280;7049;49.444;8.522;2023-03-26T18:36:04;77188.28;;;-3.47;88.05
13954;BME280;7049;49.444;8.522;2023-03-26T18:41:21;77190.38;;;-3.47;88.53
13954;BME280;7049;49.444;8.522;2023-03-26T18:47:04;77188.28;;;-3.47;88.86
13954;BME280;7049;49.444;8.522;2023-03-26T18:52:28;77173.66;;;-3.47;88.37
13954;BME280;7049;49.444;8.522;2023-03-26T18:57:35;77177.84;;;-3.47;88.63
13954;BME280;7049;49.444;8.522;2023-03-26T19:02:45;77169.47;;;-3.47;87.21
13954;BME280;7049;49.444;8.522;2023-03-26T19:08:05;77173.66;;;-3.47;85.97
13954;BME280;7049;49.444;8.522;2023-03-26T19:19:14;77161.09;;;-3.47;83.69
13954;BME280;7049;49.444;8.522;2023-03-26T19:24:37;77161.09;;;-3.47;82.34
13954;BME280;7049;49.444;8.522;2023-03-26T19:29:41;77167.38;;;-3.47;81.87
13954;BME280;7049;49.444;8.522;2023-03-26T19:34:53;77173.66;;;-3.47;82.45
13954;BME280;7049;49.444;8.522;2023-03-26T19:40:18;77171.56;;;-3.47;82.24
13954;BME280;7049;49.444;8.522;2023-03-26T19:45:33;77182.03;;;-3.47;85.13
13954;BME280;7049;49.444;8.522;2023-03-26T19:50:40;77186.19;;;-3.47;87.18
13954;BME280;7049;49.444;8.522;2023-03-26T19:55:51;77200.84;;;-3.47;88.57
13954;BME280;7049;49.444;8.522;2023-03-26T20:00:52;77221.78;;;-3.47;90.02
13954;BME280;7049;49.444;8.522;2023-03-26T20:05:56;77225.94;;;-3.47;91.09
13954;BME280;7049;49.444;8.522;2023-03-26T20:10:57;77232.22;;;-3.47;92.28
13954;BME280;7049;49.444;8.522;2023-03-26T20:16:06;77236.41;;;-3.47;92.64
13954;BME280;7049;49.444;8.522;2023-03-26T20:21:12;77242.69;;;-3.47;93.14
13954;BME280;7049;49.444;8.522;2023-03-26T20:26:15;77246.88;;;-3.47;93.74
13954;BME280;7049;49.444;8.522;2023-03-26T20:31:19;77257.34;;;-3.47;94.41
13954;BME280;7049;49.444;8.522;2023-03-26T20:36:22;77263.63;;;-3.47;95.63
13954;BME280;7049;49.444;8.522;2023-03-26T20:41:23;77276.16;;;-3.47;95.55
13954;BME280;7049;49.444;8.522;2023-03-26T20:46:26;77282.44;;;-3.47;96.07
13954;BME280;7049;49.444;8.522;2023-03-26T20:51:29;77286.63;;;-3.47;96.39
13954;BME280;7049;49.444;8.522;2023-03-26T20:56:31;77290.81;;;-3.47;96.94
13954;BME280;7049;49.444;8.522;2023-03-26T21:01:34;77290.81;;;-3.47;97.72
13954;BME280;7049;49.444;8.522;2023-03-26T21:06:38;77299.19;;;-3.47;98.38
13954;BME280;7049;49.444;8.522;2023-03-26T21:11:49;77301.28;;;-3.47;98.27
13954;BME280;7049;49.444;8.522;2023-03-26T21:16:52;77299.19;;;-3.47;98.35
13954;BME280;7049;49.444;8.522;2023-03-26T21:22:01;77311.72;;;-3.47;99.00
13954;BME280;7049;49.444;8.522;2023-03-26T21:27:09;77318.00;;;-3.47;98.73
13954;BME280;7049;49.444;8.522;2023-03-26T21:32:13;77326.38;;;-3.47;99.60
13954;BME280;7049;49.444;8.522;2023-03-26T21:37:16;77332.66;;;-3.47;100.00
13954;BME280;7049;49.444;8.522;2023-03-26T21:42:18;77336.84;;;-3.47;100.00
13954;BME280;7049;49.444;8.522;2023-03-26T21:47:20;77334.75;;;-3.47;100.00
13954;BME280;7049;49.444;8.522;2023-03-26T21:52:24;77328.47;;;-3.47;100.00
13954;BME280;7049;49.444;8.522;2023-03-26T21:57:38;77330.56;;;-3.47;100.00
13954;BME280;7049;49.444;8.522;2023-03-26T22:02:53;77334.75;;;-3.47;100.00
13954;BME280;7049;49.444;8.522;2023-03-26T22:08:02;77341.03;;;-3.47;100.00
13954;BME280;7049;49.444;8.522;2023-03-26T22:13:04;77349.38;;;-3.47;99.83
13954;BME280;7049;49.444;8.522;2023-03-26T22:18:05;77359.84;;;-3.47;99.14
13954;BME280;7049;49.444;8.522;2023-03-26T22:23:08;77361.94;;;-3.47;99.49
13954;BME280;7049;49.444;8.522;2023-03-26T22:28:10;77380.78;;;-3.47;99.50
13954;BME280;7049;49.444;8.522;2023-03-26T22:33:11;77374.50;;;-3.47;99.06
13954;BME280;7049;49.444;8.522;2023-03-26T22:38:14;77399.59;;;-3.47;99.01
13954;BME280;7049;49.444;8.522;2023-03-26T22:43:17;77410.06;;;-3.47;99.56
13954;BME280;7049;49.444;8.522;2023-03-26T22:48:18;77431.00;;;-3.47;98.89
13954;BME280;7049;49.444;8.522;2023-03-26T22:53:21;77445.63;;;-3.47;98.12
13954;BME280;7049;49.444;8.522;2023-03-26T22:58:24;77474.94;;;-3.47;98.29
13954;BME280;7049;49.444;8.522;2023-03-26T23:03:26;77489.56;;;-3.47;98.82
13954;BME280;7049;49.444;8.522;2023-03-26T23:08:29;77500.03;;;-3.47;98.89
13954;BME280;7049;49.444;8.522;2023-03-26T23:13:30;77514.69;;;-3.47;99.00
13954;BME280;7049;49.444;8.522;2023-03-26T23:18:32;77525.13;;;-3.47;99.27
13954;BME280;7049;49.444;8.522;2023-03-26T23:23:34;77541.88;;;-3.47;98.96
13954;BME280;7049;49.444;8.522;2023-03-26T23:28:37;77554.44;;;-3.47;98.78
13954;BME280;7049;49.444;8.522;2023-03-26T23:33:40;77566.97;;;-3.47;98.71
13954;BME280;7049;49.444;8.522;2023-03-26T23:38:47;77579.53;;;-3.47;98.98
13954;BME280;7049;49.444;8.522;2023-03-26T23:43:49;77583.72;;;-3.47;97.37
13954;BME280;7049;49.444;8.522;2023-03-26T23:48:52;77610.91;;;-3.47;96.93
13954;BME280;7049;49.444;8.522;2023-03-26T23:53:55;77633.94;;;-3.47;96.19
13954;BME280;7049;49.444;8.522;2023-03-26T23:58:57;77638.13;;;-3.47;96.26
